createdAt,value
2018-02-19T00:01:03.457Z,129.83
2018-02-19T00:03:30.273Z,132.33
2018-02-19T00:05:57.045Z,124.40
2018-02-19T00:08:23.814Z,129.30
2018-02-19T00:10:50.601Z,128.87
2018-02-19T00:13:17.430Z,128.13
2018-02-19T00:15:44.233Z,128.63
2018-02-19T00:18:11.001Z,127.30
2018-02-19T00:20:37.778Z,128.77
2018-02-19T00:23:04.545Z,131.97
2018-02-19T00:25:31.313Z,127.37
2018-02-19T00:27:58.085Z,123.10
2018-02-19T00:30:24.863Z,130.47
2018-02-19T00:32:51.638Z,127.97
2018-02-19T00:35:18.413Z,124.13
2018-02-19T00:37:45.185Z,124.73
2018-02-19T00:40:11.949Z,122.20
2018-02-19T00:42:38.758Z,124.60
2018-02-19T00:45:05.524Z,124.93
2018-02-19T00:47:32.285Z,122.80
2018-02-19T00:49:59.099Z,121.27
2018-02-19T00:52:25.877Z,116.83
2018-02-19T00:54:52.637Z,115.53
2018-02-19T00:57:19.405Z,118.27
2018-02-19T00:59:46.181Z,115.77
2018-02-19T01:02:12.999Z,114.67
2018-02-19T01:04:39.772Z,117.03
2018-02-19T01:07:06.545Z,119.87
2018-02-19T01:09:33.313Z,117.23
2018-02-19T01:12:00.152Z,118.93
2018-02-19T01:14:26.942Z,125.73
2018-02-19T01:16:53.707Z,130.57
2018-02-19T01:19:20.481Z,135.23
2018-02-19T01:21:47.248Z,136.57
2018-02-19T01:24:14.027Z,121.63
2018-02-19T01:26:40.806Z,121.80
2018-02-19T01:29:07.572Z,126.23
2018-02-19T01:31:34.345Z,124.90
2018-02-19T01:34:01.113Z,123.77
2018-02-19T01:36:27.883Z,123.77
2018-02-19T01:38:54.750Z,127.43
2018-02-19T01:41:21.528Z,132.87
2018-02-19T01:43:48.333Z,135.93
2018-02-19T01:46:15.100Z,132.00
2018-02-19T01:48:41.868Z,134.40
2018-02-19T01:51:08.669Z,134.13
2018-02-19T01:53:35.432Z,134.13
2018-02-19T01:56:02.197Z,131.43
2018-02-19T01:58:28.964Z,135.47
2018-02-19T02:00:55.738Z,130.07
2018-02-19T02:03:22.545Z,139.97
2018-02-19T02:05:49.319Z,135.37
2018-02-19T02:08:16.081Z,141.33
2018-02-19T02:10:42.852Z,139.97
2018-02-19T02:13:09.617Z,134.33
2018-02-19T02:15:36.392Z,138.87
2018-02-19T02:18:03.172Z,141.53
2018-02-19T02:20:29.945Z,145.03
2018-02-19T02:22:56.756Z,141.33
2018-02-19T02:25:23.525Z,142.43
2018-02-19T02:27:50.325Z,140.83
2018-02-19T02:30:17.109Z,142.23
2018-02-19T02:32:43.876Z,144.67
2018-02-19T02:35:10.645Z,144.67
2018-02-19T02:37:37.424Z,139.47
2018-02-19T02:40:04.193Z,142.17
2018-02-19T02:42:30.965Z,138.50
2018-02-19T02:44:57.744Z,141.63
2018-02-19T02:47:24.558Z,136.23
2018-02-19T02:49:51.331Z,121.07
2018-02-19T02:52:18.098Z,120.97
2018-02-19T02:54:44.893Z,129.63
2018-02-19T02:57:11.668Z,124.47
2018-02-19T02:59:38.443Z,126.93
2018-02-19T03:02:05.248Z,120.27
2018-02-19T03:04:32.022Z,115.67
2018-02-19T03:06:58.788Z,118.83
2018-02-19T03:09:25.561Z,117.43
2018-02-19T03:11:52.327Z,121.03
2018-02-19T03:14:19.201Z,113.60
2018-02-19T03:16:45.969Z,113.50
2018-02-19T03:19:12.733Z,121.53
2018-02-19T03:21:39.512Z,111.53
2018-02-19T03:24:06.280Z,115.80
2018-02-19T03:26:33.056Z,122.27
2018-02-19T03:28:59.877Z,114.23
2018-02-19T03:31:26.649Z,123.77
2018-02-19T03:33:53.497Z,113.67
2018-02-19T03:36:20.259Z,110.83
2018-02-19T03:38:47.036Z,107.30
2018-02-19T03:41:13.849Z,107.77
2018-02-19T03:43:40.625Z,100.20
2018-02-19T03:46:07.389Z,101.80
2018-02-19T03:48:34.156Z,107.93
2018-02-19T03:51:00.916Z,110.37
2018-02-19T03:53:27.720Z,111.70
2018-02-19T03:55:54.485Z,98.63
2018-02-19T03:58:21.252Z,102.90
2018-02-19T04:00:48.049Z,96.73
2018-02-19T04:03:14.813Z,95.57
2018-02-19T04:05:41.582Z,87.57
2018-02-19T04:08:08.349Z,83.90
2018-02-19T04:10:35.113Z,72.57
2018-02-19T04:13:01.909Z,79.33
2018-02-19T04:15:28.709Z,76.87
2018-02-19T04:17:55.482Z,72.53
2018-02-19T04:20:22.245Z,75.87
2018-02-19T04:22:49.021Z,74.83
2018-02-19T04:25:15.789Z,73.30
2018-02-19T04:27:42.593Z,76.73
2018-02-19T04:30:09.357Z,77.47
2018-02-19T04:32:36.170Z,75.87
2018-02-19T04:35:02.954Z,75.67
2018-02-19T04:37:29.757Z,77.93
2018-02-19T04:39:56.602Z,75.53
2018-02-19T04:42:23.369Z,73.37
2018-02-19T04:44:51.986Z,74.53
2018-02-19T04:47:18.748Z,71.67
2018-02-19T04:49:45.577Z,68.20
2018-02-19T04:52:12.341Z,56.43
2018-02-19T04:54:39.109Z,64.60
2018-02-19T04:57:05.911Z,62.10
2018-02-19T04:59:32.676Z,57.87
2018-02-19T05:01:59.436Z,53.73
2018-02-19T05:04:26.205Z,58.37
2018-02-19T05:06:52.973Z,53.77
2018-02-19T05:09:19.765Z,55.53
2018-02-19T05:11:46.525Z,54.53
2018-02-19T05:14:13.301Z,58.40
2018-02-19T05:16:40.068Z,64.80
2018-02-19T05:19:06.828Z,62.70
2018-02-19T05:21:33.622Z,57.93
2018-02-19T05:24:00.401Z,56.57
2018-02-19T05:26:27.161Z,54.57
2018-02-19T05:28:53.962Z,54.37
2018-02-19T05:31:20.720Z,49.73
2018-02-19T05:33:47.483Z,49.90
2018-02-19T05:36:14.469Z,47.67
2018-02-19T05:38:41.277Z,46.00
2018-02-19T05:41:08.037Z,43.23
2018-02-19T05:43:34.837Z,44.87
2018-02-19T05:46:01.601Z,42.00
2018-02-19T05:48:28.373Z,43.10
2018-02-19T05:50:55.189Z,40.77
2018-02-19T05:53:21.948Z,42.83
2018-02-19T05:55:48.711Z,43.03
2018-02-19T05:58:15.550Z,42.40
2018-02-19T06:00:42.311Z,41.53
2018-02-19T06:03:09.214Z,42.20
2018-02-19T06:05:36.092Z,37.43
2018-02-19T06:08:02.862Z,39.50
2018-02-19T06:10:29.629Z,38.77
2018-02-19T06:12:56.429Z,38.63
2018-02-19T06:15:23.243Z,40.03
2018-02-19T06:17:50.076Z,40.73
2018-02-19T06:20:17.035Z,44.97
2018-02-19T06:22:43.789Z,41.37
2018-02-19T06:25:10.545Z,38.57
2018-02-19T06:27:37.345Z,35.63
2018-02-19T06:30:04.141Z,38.23
2018-02-19T06:32:30.941Z,38.83
2018-02-19T06:34:57.746Z,35.73
2018-02-19T06:37:24.509Z,35.87
2018-02-19T06:39:51.268Z,33.03
2018-02-19T06:42:18.074Z,34.93
2018-02-19T06:44:44.832Z,35.47
2018-02-19T06:47:11.621Z,34.70
2018-02-19T06:49:38.388Z,36.50
2018-02-19T06:52:05.153Z,35.63
2018-02-19T06:54:31.944Z,35.83
2018-02-19T06:56:58.701Z,36.37
2018-02-19T06:59:25.456Z,43.63
2018-02-19T07:01:52.229Z,35.70
2018-02-19T07:04:18.997Z,36.30
2018-02-19T07:06:45.792Z,35.70
2018-02-19T07:09:12.549Z,35.67
2018-02-19T07:11:39.308Z,35.13
2018-02-19T07:14:06.105Z,33.70
2018-02-19T07:16:32.864Z,37.90
2018-02-19T07:18:59.625Z,35.30
2018-02-19T07:21:26.434Z,36.20
2018-02-19T07:23:53.189Z,34.97
2018-02-19T07:26:19.956Z,34.67
2018-02-19T07:28:46.728Z,34.37
2018-02-19T07:31:13.645Z,36.03
2018-02-19T07:33:40.404Z,34.57
2018-02-19T07:36:07.181Z,34.80
2018-02-19T07:38:33.969Z,34.60
2018-02-19T07:41:00.737Z,33.13
2018-02-19T07:43:27.511Z,35.03
2018-02-19T07:45:54.283Z,35.63
2018-02-19T07:48:21.064Z,35.23
2018-02-19T07:50:47.824Z,35.63
2018-02-19T07:53:14.670Z,37.67
2018-02-19T07:55:42.041Z,35.07
2018-02-19T07:58:08.805Z,35.13
2018-02-19T08:00:35.635Z,36.50
2018-02-19T08:03:02.402Z,35.60
2018-02-19T08:05:29.203Z,37.03
2018-02-19T08:07:55.994Z,34.97
2018-02-19T08:10:22.792Z,34.10
2018-02-19T08:12:49.593Z,33.93
2018-02-19T08:15:16.397Z,32.87
2018-02-19T08:17:43.212Z,34.60
2018-02-19T08:20:10.017Z,33.03
2018-02-19T08:22:36.778Z,35.90
2018-02-19T08:25:03.536Z,33.50
2018-02-19T08:27:30.351Z,35.17
2018-02-19T08:29:57.146Z,40.40
2018-02-19T08:32:23.907Z,29.27
2018-02-19T08:34:50.669Z,34.37
2018-02-19T08:37:17.511Z,34.23
2018-02-19T08:39:44.337Z,34.40
2018-02-19T08:42:11.108Z,31.80
2018-02-19T08:44:38.023Z,31.53
2018-02-19T08:47:05.056Z,31.57
2018-02-19T08:49:31.841Z,33.17
2018-02-19T08:51:58.604Z,28.97
2018-02-19T08:54:25.412Z,33.50
2018-02-19T08:56:52.265Z,33.13
2018-02-19T08:59:19.021Z,32.43
2018-02-19T09:01:45.789Z,37.53
2018-02-19T09:04:12.556Z,37.93
2018-02-19T09:06:39.365Z,32.93
2018-02-19T09:09:06.171Z,33.43
2018-02-19T09:11:32.930Z,33.80
2018-02-19T09:13:59.697Z,32.70
2018-02-19T09:16:26.460Z,30.33
2018-02-19T09:18:53.260Z,29.10
2018-02-19T09:21:20.021Z,28.97
2018-02-19T09:23:46.794Z,29.30
2018-02-19T09:26:13.573Z,30.10
2018-02-19T09:28:40.342Z,29.67
2018-02-19T09:31:07.156Z,27.93
2018-02-19T09:33:33.936Z,29.73
2018-02-19T09:36:00.709Z,26.67
2018-02-19T09:38:27.503Z,30.77
2018-02-19T09:40:54.260Z,30.57
2018-02-19T09:43:21.027Z,29.53
2018-02-19T09:45:47.840Z,28.10
2018-02-19T09:48:14.605Z,30.53
2018-02-19T09:50:41.381Z,30.07
2018-02-19T09:53:08.149Z,31.77
2018-02-19T09:55:34.961Z,31.03
2018-02-19T09:58:01.737Z,30.50
2018-02-19T10:00:28.469Z,32.20
2018-02-19T10:02:55.274Z,31.43
2018-02-19T10:05:22.034Z,35.27
2018-02-19T10:07:48.797Z,30.33
2018-02-19T10:10:15.570Z,35.07
2018-02-19T10:12:42.338Z,35.90
2018-02-19T10:15:09.137Z,33.50
2018-02-19T10:17:35.897Z,35.47
2018-02-19T10:20:02.666Z,34.63
2018-02-19T10:22:29.465Z,43.53
2018-02-19T10:24:56.225Z,35.07
2018-02-19T10:27:22.993Z,35.93
2018-02-19T10:29:49.788Z,35.83
2018-02-19T10:32:16.579Z,36.83
2018-02-19T10:34:43.341Z,39.50
2018-02-19T10:37:10.133Z,38.83
2018-02-19T10:39:36.959Z,38.87
2018-02-19T10:42:03.709Z,40.07
2018-02-19T10:44:30.501Z,35.83
2018-02-19T10:46:57.265Z,38.07
2018-02-19T10:49:24.030Z,41.47
2018-02-19T10:51:50.850Z,38.27
2018-02-19T10:54:17.605Z,35.50
2018-02-19T10:56:44.370Z,34.50
2018-02-19T10:59:11.133Z,30.63
2018-02-19T11:01:37.895Z,29.13
2018-02-19T11:04:04.731Z,34.13
2018-02-19T11:06:31.492Z,25.83
2018-02-19T11:08:58.257Z,27.30
2018-02-19T11:11:25.063Z,30.53
2018-02-19T11:13:51.828Z,32.10
2018-02-19T11:16:18.592Z,33.17
2018-02-19T11:18:45.404Z,31.10
2018-02-19T11:21:12.181Z,34.73
2018-02-19T11:23:38.944Z,30.70
2018-02-19T11:26:05.761Z,37.37
2018-02-19T11:28:32.537Z,37.40
2018-02-19T11:30:59.297Z,31.30
2018-02-19T11:33:26.057Z,30.57
2018-02-19T11:35:52.902Z,25.07
2018-02-19T11:38:19.708Z,26.07
2018-02-19T11:40:46.497Z,26.90
2018-02-19T11:43:13.269Z,23.70
2018-02-19T11:45:40.119Z,28.13
2018-02-19T11:48:06.883Z,26.90
2018-02-19T11:50:33.641Z,28.93
2018-02-19T11:53:00.475Z,24.80
2018-02-19T11:55:27.237Z,24.20
2018-02-19T11:57:54.002Z,23.27
2018-02-19T12:00:20.865Z,29.07
2018-02-19T12:02:47.646Z,22.60
2018-02-19T12:05:14.422Z,23.13
2018-02-19T12:07:41.213Z,20.20
2018-02-19T12:10:07.985Z,22.87
2018-02-19T12:12:34.761Z,24.60
2018-02-19T12:15:01.525Z,22.60
2018-02-19T12:17:28.338Z,22.57
2018-02-19T12:19:55.137Z,21.33
2018-02-19T12:22:21.909Z,22.23
2018-02-19T12:24:48.670Z,30.53
2018-02-19T12:27:15.433Z,37.77
2018-02-19T12:29:42.212Z,25.40
2018-02-19T12:32:08.981Z,26.50
2018-02-19T12:34:35.798Z,25.03
2018-02-19T12:37:02.594Z,26.47
2018-02-19T12:39:29.393Z,29.37
2018-02-19T12:41:56.191Z,31.00
2018-02-19T12:44:22.954Z,26.70
2018-02-19T12:46:49.777Z,29.17
2018-02-19T12:49:16.585Z,40.97
2018-02-19T12:51:43.349Z,32.60
2018-02-19T12:54:10.112Z,29.77
2018-02-19T12:56:36.905Z,34.03
2018-02-19T12:59:03.672Z,35.10
2018-02-19T13:01:30.435Z,33.47
2018-02-19T13:03:57.232Z,32.23
2018-02-19T13:06:23.998Z,29.30
2018-02-19T13:08:50.789Z,30.47
2018-02-19T13:11:17.621Z,26.60
2018-02-19T13:13:44.385Z,29.73
2018-02-19T13:16:11.144Z,27.27
2018-02-19T13:18:37.941Z,24.70
2018-02-19T13:21:04.707Z,29.07
2018-02-19T13:23:31.472Z,37.93
2018-02-19T13:25:58.277Z,46.27
2018-02-19T13:28:25.041Z,24.57
2018-02-19T13:30:51.805Z,40.77
2018-02-19T13:33:18.569Z,22.60
2018-02-19T13:35:45.330Z,33.20
2018-02-19T13:38:12.151Z,27.77
2018-02-19T13:40:38.914Z,27.23
2018-02-19T13:43:05.714Z,24.07
2018-02-19T13:45:32.493Z,21.27
2018-02-19T13:47:59.306Z,22.67
2018-02-19T13:50:26.117Z,20.63
2018-02-19T13:52:52.873Z,20.43
2018-02-19T13:55:19.637Z,24.33
2018-02-19T13:57:46.401Z,21.10
2018-02-19T14:00:13.157Z,22.20
2018-02-19T14:02:39.961Z,22.23
2018-02-19T14:05:06.720Z,26.47
2018-02-19T14:07:33.483Z,23.47
2018-02-19T14:10:00.276Z,24.40
2018-02-19T14:12:27.045Z,25.00
2018-02-19T14:14:53.814Z,24.67
2018-02-19T14:17:20.611Z,21.37
2018-02-19T14:19:47.377Z,23.33
2018-02-19T14:22:14.135Z,23.73
2018-02-19T14:24:40.977Z,24.50
2018-02-19T14:27:07.760Z,22.30
2018-02-19T14:29:34.539Z,23.30
2018-02-19T14:32:01.345Z,26.33
2018-02-19T14:34:28.117Z,27.87
2018-02-19T14:36:54.907Z,32.13
2018-02-19T14:39:21.701Z,28.20
2018-02-19T14:41:48.465Z,29.87
2018-02-19T14:44:15.223Z,23.73
2018-02-19T14:46:41.997Z,25.23
2018-02-19T14:49:08.822Z,25.67
2018-02-19T14:51:35.585Z,24.83
2018-02-19T14:54:02.345Z,31.10
2018-02-19T14:56:31.846Z,24.67
2018-02-19T14:58:58.600Z,25.97
2018-02-19T15:01:25.396Z,27.37
2018-02-19T15:03:52.197Z,26.70
2018-02-19T15:06:20.722Z,28.63
2018-02-19T15:08:47.481Z,24.80
2018-02-19T15:11:14.249Z,25.13
2018-02-19T15:13:41.052Z,24.07
2018-02-19T15:16:07.878Z,23.73
2018-02-19T15:18:34.641Z,27.10
2018-02-19T15:21:01.441Z,28.60
2018-02-19T15:23:28.197Z,30.67
2018-02-19T15:25:54.958Z,30.20
2018-02-19T15:28:21.761Z,30.07
2018-02-19T15:30:48.524Z,31.20
2018-02-19T15:33:15.285Z,20.70
2018-02-19T15:35:42.113Z,28.77
2018-02-19T15:38:08.871Z,30.53
2018-02-19T15:40:35.641Z,31.53
2018-02-19T15:43:02.445Z,37.00
2018-02-19T15:45:29.209Z,28.20
2018-02-19T15:47:55.981Z,26.40
2018-02-19T15:50:22.783Z,18.80
2018-02-19T15:52:49.547Z,16.10
2018-02-19T15:55:16.313Z,18.07
2018-02-19T15:57:43.144Z,15.83
2018-02-19T16:00:09.945Z,13.13
2018-02-19T16:02:36.705Z,18.20
2018-02-19T16:05:03.467Z,18.30
2018-02-19T16:07:30.268Z,21.60
2018-02-19T16:09:57.045Z,19.83
2018-02-19T16:12:23.849Z,20.23
2018-02-19T16:14:50.656Z,20.27
2018-02-19T16:17:17.421Z,19.90
2018-02-19T16:19:44.185Z,17.50
2018-02-19T16:22:10.994Z,18.27
2018-02-19T16:24:37.781Z,19.33
2018-02-19T16:27:04.537Z,20.93
2018-02-19T16:29:31.478Z,15.93
2018-02-19T16:31:58.924Z,17.30
2018-02-19T16:34:25.685Z,21.50
2018-02-19T16:36:52.542Z,20.60
2018-02-19T16:39:19.306Z,19.33
2018-02-19T16:41:46.065Z,19.57
2018-02-19T16:44:12.867Z,18.23
2018-02-19T16:46:39.638Z,21.50
2018-02-19T16:49:06.516Z,19.73
2018-02-19T16:51:33.285Z,18.83
2018-02-19T16:54:00.052Z,14.73
2018-02-19T16:56:26.819Z,18.27
2018-02-19T16:58:53.586Z,22.53
2018-02-19T17:01:20.390Z,27.07
2018-02-19T17:03:47.157Z,34.63
2018-02-19T17:06:13.927Z,29.20
2018-02-19T17:08:40.719Z,27.40
2018-02-19T17:11:07.553Z,25.33
2018-02-19T17:13:34.331Z,28.50
2018-02-19T17:16:01.192Z,20.80
2018-02-19T17:18:27.956Z,22.30
2018-02-19T17:20:54.722Z,23.20
2018-02-19T17:23:21.491Z,20.60
2018-02-19T17:25:48.270Z,23.40
2018-02-19T17:28:15.030Z,31.00
2018-02-19T17:30:42.094Z,34.70
2018-02-19T17:33:08.860Z,22.93
2018-02-19T17:35:35.621Z,19.60
2018-02-19T17:38:02.443Z,22.20
2018-02-19T17:40:29.211Z,24.10
2018-02-19T17:42:55.988Z,24.40
2018-02-19T17:45:22.786Z,36.20
2018-02-19T17:47:49.567Z,25.33
2018-02-19T17:50:16.369Z,20.50
2018-02-19T17:52:43.159Z,20.97
2018-02-19T17:55:09.928Z,16.73
2018-02-19T17:57:36.730Z,16.30
2018-02-19T18:00:03.573Z,20.20
2018-02-19T18:02:30.350Z,22.13
2018-02-19T18:04:57.158Z,25.20
2018-02-19T18:07:23.948Z,21.60
2018-02-19T18:09:50.732Z,19.33
2018-02-19T18:12:17.574Z,19.47
2018-02-19T18:14:44.349Z,29.83
2018-02-19T18:17:11.113Z,22.87
2018-02-19T18:19:38.690Z,19.17
2018-02-19T18:22:05.514Z,14.83
2018-02-19T18:24:32.277Z,20.03
2018-02-19T18:26:59.057Z,16.07
2018-02-19T18:29:25.838Z,18.47
2018-02-19T18:31:52.597Z,15.60
2018-02-19T18:34:19.366Z,18.13
2018-02-19T18:36:46.226Z,15.77
2018-02-19T18:39:13.033Z,16.83
2018-02-19T18:41:39.813Z,18.60
2018-02-19T18:44:06.571Z,12.03
2018-02-19T18:46:33.373Z,14.13
2018-02-19T18:49:00.136Z,13.63
2018-02-19T18:51:26.899Z,13.27
2018-02-19T18:53:53.673Z,14.33
2018-02-19T18:56:20.430Z,14.10
2018-02-19T18:58:47.241Z,16.33
2018-02-19T19:01:14.012Z,17.43
2018-02-19T19:03:40.773Z,16.10
2018-02-19T19:06:07.570Z,17.67
2018-02-19T19:08:40.201Z,20.57
2018-02-19T19:11:06.962Z,11.30
2018-02-19T19:13:33.762Z,14.63
2018-02-19T19:16:00.521Z,14.50
2018-02-19T19:18:27.280Z,15.20
2018-02-19T19:20:54.074Z,18.17
2018-02-19T19:23:20.839Z,28.00
2018-02-19T19:25:47.603Z,15.17
2018-02-19T19:28:15.160Z,16.47
2018-02-19T19:30:41.926Z,14.07
2018-02-19T19:33:08.705Z,18.73
2018-02-19T19:35:35.477Z,15.17
2018-02-19T19:38:02.233Z,12.17
2018-02-19T19:40:28.997Z,13.53
2018-02-19T19:42:55.757Z,13.50
2018-02-19T19:45:22.577Z,16.37
2018-02-19T19:47:49.337Z,16.27
2018-02-19T19:50:16.194Z,18.43
2018-02-19T19:52:42.960Z,12.23
2018-02-19T19:55:09.721Z,15.53
2018-02-19T19:57:36.482Z,20.93
2018-02-19T20:00:03.342Z,18.83
2018-02-19T20:02:30.132Z,12.10
2018-02-19T20:04:56.938Z,15.60
2018-02-19T20:07:23.729Z,14.20
2018-02-19T20:09:50.489Z,19.20
2018-02-19T20:12:17.305Z,10.37
2018-02-19T20:14:44.129Z,12.67
2018-02-19T20:17:10.889Z,12.10
2018-02-19T20:19:37.828Z,9.33
2018-02-19T20:22:04.610Z,13.93
2018-02-19T20:24:31.409Z,15.60
2018-02-19T20:26:58.201Z,18.97
2018-02-19T20:29:25.000Z,14.63
2018-02-19T20:31:51.771Z,14.73
2018-02-19T20:34:18.533Z,15.63
2018-02-19T20:36:45.374Z,15.53
2018-02-19T20:39:12.154Z,14.60
2018-02-19T20:41:38.918Z,17.33
2018-02-19T20:44:05.721Z,16.67
2018-02-19T20:46:32.552Z,15.77
2018-02-19T20:48:59.294Z,15.20
2018-02-19T20:51:26.071Z,16.93
2018-02-19T20:53:52.841Z,19.33
2018-02-19T20:56:19.605Z,15.93
2018-02-19T20:58:46.410Z,17.93
2018-02-19T21:01:13.177Z,17.83
2018-02-19T21:03:39.958Z,15.90
2018-02-19T21:06:06.785Z,18.73
2018-02-19T21:08:33.557Z,19.37
2018-02-19T21:11:00.371Z,19.50
2018-02-19T21:13:27.198Z,18.50
2018-02-19T21:15:53.961Z,17.00
2018-02-19T21:18:20.750Z,14.87
